EYPAESMQ

Guest
Details From EYPA - PALANGA INTL
To ESMQ - Kalmar
Flight Number -
Tags generated
Created
Modified
Stats Distance 166 nm / 307 km
Max Altitude 18,200 ft / 5,547 m
Waypoints 3
Social Downloads 0
Likes 0
Share VATSIM

Download

Looking for another format? Having issues loading an existing format? Contact us
Advertisement - Login to hide

Notes

Basic altitude profile: - Ascent Rate: 500ft/min - Ascent Speed: 250kts - Cruise Altitude: 4000ft - Cruise Speed: 70kts - Descent Rate: 500ft/min - Descent Speed: 250kts Options: - Use NATs: yes - Use PACOTS: yes - Use low airways: yes - Use high airways: yes

Route

EYPA ADAXA ESMQ

ID Type Via Altitude Latitude Longitude Leg Dist Tot Dist Heading (true) Name
O EYPA APT - 0 ft / 0 m 55.97312˚ 21.09381˚ - 0 nm - PALANGA INTL
ADAXA FIX - 18,200 ft / 5,547 m 56.29778˚ 18.89833˚ 76 nm 76 nm 286° / 284° -
O ESMQ APT - 0 ft / 0 m 56.68565˚ 16.28306˚ 89 nm 165 nm 286° / 284° Kalmar

Altitude Profile

Advertisement - Login to hide

Weather


0- 5 10 15 20 25 30 35+ Temperature / ° C

Clouds and Precipitation
Forecast for 2017-12-12 00:00 UTC. Updated 12 minutes ago

Ground ~20,000 ft ~40,000 ft Winds

EYPA

Details ICAO EYPA (PLQ)
Name PALANGA INTL
Region Lithuania
Timezone Europe/Vilnius (UTC+2.0)
Stats Elevation 33 ft / 10 m (AMSL)
Location 55.973115° 21.093811°
Runways 1
Magnetic Variation 6.524° E

METAR

EYPA 111920Z 14008KT 9999 OVC018 02/01 Q0994 R19/2///95

Decode

TAF

TAF EYPA 111110Z 1112/1212 14008G18KT 5000 BR OVC010 TEMPO 1112/1115 RASN OVC005 TEMPO 1115/1121 1500 DZ OVC003 BECMG 1121/1122 BKN005 TEMPO 1200/1209 3000 RA OVC010 BECMG 1210/1211 21010G22KT

Decode

Departure Runways

ID Width Length Bearing (true) Bearing (mag) Surface Threshold Offset Overrun Length
01 131 ft / 40 m 6,473 ft / 1,973 m 12.70° 6.18° Asphalt 0 ft / 0 m 0 ft / 0 m
19 131 ft / 40 m 6,473 ft / 1,973 m 192.71° 186.19° Asphalt 0 ft / 0 m 0 ft / 0 m

ESMQ

Details ICAO ESMQ (KLR)
Name Kalmar
Region Sweden
Timezone Europe/Stockholm (UTC+1.0)
Stats Elevation 17 ft / 5 m (AMSL)
Location 56.685646° 16.283058°
Runways 2
Magnetic Variation 5.057° E

METAR

ESMQ 111920Z 08003KT 8000 BR FEW007 SCT009 BKN014 03/03 Q0989

Decode

TAF

Not found

Destination Runways

ID Width Length Bearing (true) Bearing (mag) Surface Threshold Offset Overrun Length
05 131 ft / 40 m 2,174 ft / 663 m 48.03° 42.97° Asphalt 0 ft / 0 m 640 ft / 195 m
16 148 ft / 45 m 6,715 ft / 2,047 m 152.22° 147.16° Asphalt 0 ft / 0 m 0 ft / 0 m
23 131 ft / 40 m 2,174 ft / 663 m 228.03° 222.97° Asphalt 0 ft / 0 m 0 ft / 0 m
34 148 ft / 45 m 6,715 ft / 2,047 m 332.23° 327.17° Asphalt 0 ft / 0 m 873 ft / 266 m

Approach Navaids

Runway Type Ident Frequency Range Bearing (true) Bearing (mag) Slope Elevation
16 Localiser MQ 108.70 MHz 18 nm / 33 km 152.34° 147.29° - 17 ft / 5 m (AMSL)
16 Glidescope MQ 108.70 MHz 10 nm / 19 km 152.23° 147.17° 3.00° 17 ft / 5 m (AMSL)

Popular Alternatives